Time;durP1;ratioP1;P1;durP2;ratioP2;P2;SDS_P1;SDS_P2;PMS_P1;PMS_P2;Temp;Humidity;BMP_temperature;BMP_pressure;BME280_temperature;BME280_humidity;BME280_pressure;Samples;Min_cycle;Max_cycle;Signal;HPM_P1;HPM_P2
2021/09/08 00:01:39;;;;;;;27.08;20.83;;;18.00;99.90;;;;;;5091503;28;20040;-60
2021/09/08 00:04:04;;;;;;;31.90;22.42;;;17.90;99.90;;;;;;5091372;28;20124;-60
2021/09/08 00:06:31;;;;;;;28.05;21.27;;;17.90;99.90;;;;;;5095386;28;20093;-60
2021/09/08 00:08:56;;;;;;;31.23;22.70;;;17.90;99.90;;;;;;5095602;28;20103;-61
2021/09/08 00:11:22;;;;;;;25.60;20.90;;;17.90;99.90;;;;;;5095679;28;20088;-60
2021/09/08 00:13:47;;;;;;;30.50;22.70;;;17.90;99.90;;;;;;5095250;28;20032;-60
2021/09/08 00:16:14;;;;;;;27.35;20.83;;;17.80;99.90;;;;;;5095269;28;20547;-60
2021/09/08 00:18:40;;;;;;;30.30;23.05;;;17.80;99.90;;;;;;5095037;28;20048;-60
2021/09/08 00:21:05;;;;;;;28.20;20.67;;;17.80;99.90;;;;;;5095303;28;20043;-60
2021/09/08 00:23:31;;;;;;;30.63;22.17;;;17.80;99.90;;;;;;5094782;28;20398;-60
2021/09/08 00:25:57;;;;;;;28.48;21.25;;;17.80;99.90;;;;;;5095154;28;20417;-59
2021/09/08 00:28:22;;;;;;;30.00;22.27;;;17.80;99.90;;;;;;5094919;28;20538;-60
2021/09/08 00:30:48;;;;;;;25.83;20.23;;;17.70;99.90;;;;;;5094964;28;20042;-60
2021/09/08 00:33:14;;;;;;;31.58;21.30;;;17.70;99.90;;;;;;5094739;28;20055;-59
2021/09/08 00:35:39;;;;;;;28.17;21.52;;;17.70;99.90;;;;;;5095021;28;20104;-60
2021/09/08 00:38:09;;;;;;;29.83;21.85;;;17.70;99.90;;;;;;5094970;28;20075;-60
2021/09/08 00:40:35;;;;;;;29.60;22.15;;;17.70;99.90;;;;;;5094687;28;20044;-60
2021/09/08 00:43:00;;;;;;;32.30;22.52;;;17.70;99.90;;;;;;5094635;28;20043;-60
2021/09/08 00:45:26;;;;;;;28.33;22.13;;;17.70;99.90;;;;;;5094623;28;20436;-60
2021/09/08 00:47:52;;;;;;;27.85;22.13;;;17.70;99.90;;;;;;5094610;28;20040;-60
2021/09/08 00:50:17;;;;;;;31.20;20.92;;;17.70;99.90;;;;;;5094507;28;20115;-60
2021/09/08 00:52:44;;;;;;;30.70;20.73;;;17.60;99.90;;;;;;5094520;28;20409;-60
2021/09/08 00:55:11;;;;;;;27.98;21.73;;;17.60;99.90;;;;;;5094568;28;20123;-60
2021/09/08 00:57:37;;;;;;;30.15;21.10;;;17.60;99.90;;;;;;5093189;28;20063;-60
2021/09/08 01:00:05;;;;;;;28.60;21.60;;;17.60;99.90;;;;;;5094906;28;20047;-60
2021/09/08 01:02:30;;;;;;;29.95;21.42;;;17.60;99.90;;;;;;5094246;28;20044;-60
2021/09/08 01:04:56;;;;;;;31.85;21.23;;;17.60;99.90;;;;;;5094499;28;20446;-60
2021/09/08 01:07:22;;;;;;;31.60;21.38;;;17.50;99.90;;;;;;5094625;28;20032;-60
2021/09/08 01:09:48;;;;;;;27.23;22.55;;;17.50;99.90;;;;;;5094118;28;20036;-60
2021/09/08 01:12:15;;;;;;;31.77;22.25;;;17.50;99.90;;;;;;5094175;28;20110;-60
2021/09/08 01:14:42;;;;;;;29.85;21.63;;;17.40;99.90;;;;;;5094109;28;20474;-60
2021/09/08 01:17:08;;;;;;;29.52;21.10;;;17.50;99.90;;;;;;5093571;28;20051;-60
2021/09/08 01:19:36;;;;;;;28.90;21.83;;;17.40;99.90;;;;;;5094194;28;20453;-60
2021/09/08 01:22:02;;;;;;;26.52;20.50;;;17.40;99.90;;;;;;5093696;28;20032;-60
2021/09/08 01:24:28;;;;;;;26.75;21.55;;;17.40;99.90;;;;;;5093848;28;20043;-60
2021/09/08 01:26:55;;;;;;;29.13;22.05;;;17.40;99.90;;;;;;5093905;28;20032;-60
2021/09/08 01:29:22;;;;;;;27.15;22.17;;;17.30;99.90;;;;;;5093806;28;20051;-60
2021/09/08 01:31:58;;;;;;;29.52;22.20;;;17.30;99.90;;;;;;5093735;28;20036;-60
2021/09/08 01:34:25;;;;;;;32.13;22.73;;;17.30;99.90;;;;;;5093633;28;20486;-60
2021/09/08 01:36:52;;;;;;;27.58;21.95;;;17.20;99.90;;;;;;5092669;28;20048;-60
2021/09/08 01:39:19;;;;;;;29.70;24.25;;;17.30;99.90;;;;;;5093575;28;20036;-59
2021/09/08 01:41:49;;;;;;;28.02;21.52;;;17.20;99.90;;;;;;5093621;28;20044;-60
2021/09/08 01:44:22;;;;;;;30.95;22.55;;;17.20;99.90;;;;;;5093333;28;20036;-60
2021/09/08 01:46:50;;;;;;;26.58;21.38;;;17.10;99.90;;;;;;5093436;28;20489;-60
2021/09/08 01:49:15;;;;;;;29.42;23.25;;;17.10;99.90;;;;;;5093405;28;20079;-60
2021/09/08 01:51:41;;;;;;;29.10;22.65;;;17.10;99.90;;;;;;5093448;28;20442;-60
2021/09/08 01:54:07;;;;;;;31.35;21.83;;;17.00;99.90;;;;;;5093355;28;20040;-60
2021/09/08 01:56:32;;;;;;;27.02;21.98;;;17.00;99.90;;;;;;5093223;28;20032;-60
2021/09/08 01:58:58;;;;;;;29.65;22.05;;;17.00;99.90;;;;;;5093449;28;20484;-60
2021/09/08 02:01:25;;;;;;;27.40;21.58;;;16.90;99.90;;;;;;5093295;28;20040;-60
2021/09/08 02:03:51;;;;;;;28.05;20.83;;;17.00;99.90;;;;;;5093288;28;20071;-60
2021/09/08 02:06:23;;;;;;;31.95;23.13;;;16.90;99.90;;;;;;5093129;28;20040;-60
2021/09/08 02:08:53;;;;;;;29.85;23.55;;;16.90;99.90;;;;;;5091938;28;20121;-60
2021/09/08 02:11:19;;;;;;;30.08;21.90;;;16.90;99.90;;;;;;5092883;28;20388;-59
2021/09/08 02:13:45;;;;;;;32.08;22.42;;;16.80;99.90;;;;;;5092927;28;20040;-59
2021/09/08 02:16:10;;;;;;;27.00;21.33;;;16.80;99.90;;;;;;5092890;28;20040;-60
2021/09/08 02:18:36;;;;;;;31.20;23.65;;;16.80;99.90;;;;;;5092987;28;20055;-60
2021/09/08 02:21:02;;;;;;;31.70;22.60;;;16.80;99.90;;;;;;5092884;28;20040;-60
2021/09/08 02:23:27;;;;;;;31.85;22.65;;;16.80;99.90;;;;;;5092497;28;20048;-60
2021/09/08 02:25:53;;;;;;;27.73;21.23;;;16.80;99.90;;;;;;5092624;28;20047;-59
2021/09/08 02:28:20;;;;;;;31.48;23.95;;;16.80;99.90;;;;;;5092177;28;20047;-59
2021/09/08 02:30:47;;;;;;;31.00;23.23;;;16.80;99.90;;;;;;5092615;28;20062;-60
2021/09/08 02:33:15;;;;;;;33.10;24.27;;;16.70;99.90;;;;;;5092536;28;20482;-59
2021/09/08 02:35:41;;;;;;;28.23;23.43;;;16.70;99.90;;;;;;5092629;28;20032;-59
2021/09/08 02:38:06;;;;;;;29.27;23.17;;;16.70;99.90;;;;;;5091206;28;20553;-59
2021/09/08 02:40:32;;;;;;;31.95;23.23;;;16.70;99.90;;;;;;5092385;28;20050;-59
2021/09/08 02:42:58;;;;;;;29.60;23.95;;;16.70;99.90;;;;;;5092475;28;20040;-61
2021/09/08 02:45:23;;;;;;;30.15;23.20;;;16.60;99.90;;;;;;5092800;28;20436;-59
2021/09/08 02:47:49;;;;;;;31.90;22.88;;;16.60;99.90;;;;;;5092468;28;20154;-60
2021/09/08 02:50:14;;;;;;;29.65;21.85;;;16.60;99.90;;;;;;5092246;28;20111;-60
2021/09/08 02:52:40;;;;;;;29.00;24.15;;;16.60;99.90;;;;;;5092259;28;20043;-60
2021/09/08 02:55:06;;;;;;;32.92;24.65;;;16.60;99.90;;;;;;5092135;28;20394;-60
2021/09/08 02:57:32;;;;;;;28.25;22.20;;;16.60;99.90;;;;;;5092371;28;20040;-59
2021/09/08 02:59:58;;;;;;;30.45;24.38;;;16.60;99.90;;;;;;5092203;28;20040;-59
2021/09/08 03:02:23;;;;;;;31.50;23.85;;;16.60;99.90;;;;;;5092106;28;20043;-59
2021/09/08 03:04:49;;;;;;;29.80;23.42;;;16.50;99.90;;;;;;5092086;28;20123;-60
2021/09/08 03:07:14;;;;;;;30.77;23.25;;;16.50;99.90;;;;;;5092056;28;20081;-60
2021/09/08 03:09:40;;;;;;;32.13;24.17;;;16.50;99.90;;;;;;5091931;28;20048;-59
2021/09/08 03:12:06;;;;;;;30.70;23.00;;;16.50;99.90;;;;;;5092032;28;20097;-60
2021/09/08 03:14:32;;;;;;;33.80;24.80;;;16.50;99.90;;;;;;5092035;28;20474;-59
2021/09/08 03:16:57;;;;;;;29.98;22.30;;;16.40;99.90;;;;;;5092046;28;20031;-60
2021/09/08 03:19:23;;;;;;;30.38;23.17;;;16.40;99.90;;;;;;5091788;28;20474;-60
2021/09/08 03:21:48;;;;;;;33.25;24.27;;;16.40;99.90;;;;;;5090581;28;20036;-60
2021/09/08 03:24:14;;;;;;;30.65;23.27;;;16.50;99.90;;;;;;5091708;28;20060;-59
2021/09/08 03:26:40;;;;;;;33.92;23.48;;;16.40;99.90;;;;;;5091809;28;20063;-60
2021/09/08 03:29:05;;;;;;;30.30;23.42;;;16.30;99.90;;;;;;5091828;28;20028;-60
2021/09/08 03:31:31;;;;;;;32.38;24.35;;;16.20;99.90;;;;;;5091860;28;20036;-60
2021/09/08 03:33:56;;;;;;;32.88;24.20;;;16.30;99.90;;;;;;5091758;28;20038;-59
2021/09/08 03:36:22;;;;;;;31.50;24.05;;;16.30;99.90;;;;;;5091703;28;20044;-59
2021/09/08 03:38:47;;;;;;;30.02;22.35;;;16.30;99.90;;;;;;5092641;28;20096;-59
2021/09/08 03:41:13;;;;;;;27.70;21.92;;;16.30;99.90;;;;;;5095912;28;20040;-59
2021/09/08 03:43:39;;;;;;;34.90;23.77;;;16.30;99.90;;;;;;5095983;28;20404;-59
2021/09/08 03:46:06;;;;;;;30.17;23.45;;;16.20;99.90;;;;;;5095766;28;20177;-59
2021/09/08 03:48:32;;;;;;;29.08;22.58;;;16.20;99.90;;;;;;5095797;28;20062;-59
2021/09/08 03:50:58;;;;;;;34.60;24.20;;;16.20;99.90;;;;;;5095801;28;20036;-59
2021/09/08 03:53:24;;;;;;;30.95;23.85;;;16.20;99.90;;;;;;5095576;28;20051;-60
2021/09/08 03:55:49;;;;;;;30.02;23.15;;;16.20;99.90;;;;;;5095709;28;20071;-59
2021/09/08 03:58:15;;;;;;;30.23;24.38;;;16.10;99.90;;;;;;5095777;28;20115;-59
2021/09/08 04:00:41;;;;;;;32.60;23.15;;;16.10;99.90;;;;;;5095691;28;20072;-59
2021/09/08 04:03:09;;;;;;;31.83;23.85;;;16.10;99.90;;;;;;5095459;28;20093;-60
2021/09/08 04:05:35;;;;;;;31.55;24.63;;;16.10;99.90;;;;;;5095426;28;20036;-60
2021/09/08 04:08:00;;;;;;;35.53;25.25;;;16.20;99.90;;;;;;5095333;28;20043;-59
2021/09/08 04:10:26;;;;;;;28.35;25.13;;;16.10;99.90;;;;;;5095871;28;20429;-59
2021/09/08 04:12:52;;;;;;;30.40;23.15;;;16.00;99.90;;;;;;5095578;28;20449;-59
2021/09/08 04:15:18;;;;;;;33.42;24.83;;;16.10;99.90;;;;;;5094181;28;20043;-59
2021/09/08 04:17:43;;;;;;;33.28;25.70;;;16.00;99.90;;;;;;5095031;28;20546;-59
2021/09/08 04:20:09;;;;;;;31.35;24.98;;;15.90;99.90;;;;;;5095212;28;20107;-59
2021/09/08 04:22:36;;;;;;;34.10;24.73;;;16.00;99.90;;;;;;5094822;28;20100;-59
2021/09/08 04:25:03;;;;;;;31.38;24.35;;;15.90;99.90;;;;;;5095250;28;20043;-59
2021/09/08 04:27:29;;;;;;;31.60;24.85;;;15.90;99.90;;;;;;5095016;28;20032;-59
2021/09/08 04:29:54;;;;;;;34.95;24.85;;;15.90;99.90;;;;;;5095045;28;20094;-59
2021/09/08 04:32:20;;;;;;;32.92;24.73;;;15.90;99.90;;;;;;5094948;28;20036;-59
2021/09/08 04:34:46;;;;;;;33.58;24.40;;;15.90;99.90;;;;;;5094816;28;20036;-60
2021/09/08 04:37:11;;;;;;;32.60;24.15;;;15.90;99.90;;;;;;5094757;28;20038;-60
2021/09/08 04:39:37;;;;;;;30.20;22.83;;;15.90;99.90;;;;;;5094926;28;20076;-60
2021/09/08 04:42:03;;;;;;;31.45;24.08;;;15.80;99.90;;;;;;5094787;28;20036;-60
2021/09/08 04:44:28;;;;;;;27.40;23.20;;;15.80;99.90;;;;;;5094636;28;20032;-59
2021/09/08 04:46:54;;;;;;;32.42;24.20;;;15.70;99.90;;;;;;5094709;28;20544;-59
2021/09/08 04:49:20;;;;;;;32.53;23.92;;;15.70;99.90;;;;;;5094654;28;20428;-59
2021/09/08 04:51:45;;;;;;;33.08;24.67;;;15.70;99.90;;;;;;5093854;28;20040;-60
2021/09/08 04:54:12;;;;;;;33.53;25.27;;;15.60;99.90;;;;;;5094840;28;20409;-59
2021/09/08 04:56:38;;;;;;;30.65;23.45;;;15.70;99.90;;;;;;5094921;28;20399;-59
2021/09/08 04:59:03;;;;;;;34.40;25.35;;;15.60;99.90;;;;;;5094716;28;20425;-59
2021/09/08 05:01:29;;;;;;;32.25;24.17;;;15.60;99.90;;;;;;5093079;28;20123;-59
2021/09/08 05:03:55;;;;;;;35.95;24.80;;;15.60;99.90;;;;;;5094261;28;20047;-60
2021/09/08 05:06:20;;;;;;;33.40;25.60;;;15.60;99.90;;;;;;5094208;28;20083;-59
2021/09/08 05:08:46;;;;;;;31.10;24.02;;;15.60;99.90;;;;;;5094266;28;20039;-59
2021/09/08 05:11:12;;;;;;;30.63;23.33;;;15.60;99.90;;;;;;5094197;28;20036;-59
2021/09/08 05:13:38;;;;;;;32.10;26.65;;;15.60;99.90;;;;;;5092816;28;20047;-60
2021/09/08 05:16:06;;;;;;;36.08;26.70;;;15.60;99.90;;;;;;5094052;28;20393;-59
2021/09/08 05:18:31;;;;;;;36.05;25.90;;;15.60;99.90;;;;;;5093855;28;20047;-59
2021/09/08 05:20:57;;;;;;;36.65;27.10;;;15.60;99.90;;;;;;5093907;28;20036;-59
2021/09/08 05:23:23;;;;;;;31.27;24.83;;;15.60;99.90;;;;;;5093997;28;20055;-59
2021/09/08 05:25:48;;;;;;;33.80;24.65;;;15.60;99.90;;;;;;5093933;28;20055;-59
2021/09/08 05:28:14;;;;;;;38.38;27.83;;;15.60;99.90;;;;;;5093791;28;20084;-59
2021/09/08 05:30:40;;;;;;;34.83;25.92;;;15.70;99.90;;;;;;5093713;28;20036;-59
2021/09/08 05:33:05;;;;;;;38.20;25.00;;;15.80;99.90;;;;;;5093824;28;20504;-59
2021/09/08 05:35:31;;;;;;;36.35;27.08;;;15.70;99.90;;;;;;5093664;28;20504;-59
2021/09/08 05:37:57;;;;;;;33.80;24.63;;;15.80;99.90;;;;;;5094042;28;20047;-59
2021/09/08 05:40:23;;;;;;;36.92;26.85;;;15.80;99.90;;;;;;5094008;28;20036;-59
2021/09/08 05:42:48;;;;;;;33.88;26.13;;;15.80;99.90;;;;;;5092454;28;20473;-59
2021/09/08 05:45:14;;;;;;;35.38;26.92;;;15.90;99.90;;;;;;5093563;28;20036;-59
2021/09/08 05:47:40;;;;;;;38.17;27.52;;;16.00;99.90;;;;;;5093526;28;20036;-59
2021/09/08 05:50:06;;;;;;;39.67;28.10;;;16.10;99.90;;;;;;5093465;28;20036;-59
2021/09/08 05:52:32;;;;;;;33.63;25.67;;;16.10;99.90;;;;;;5093519;28;20036;-58
2021/09/08 05:54:57;;;;;;;37.67;28.38;;;16.20;99.90;;;;;;5093457;28;20040;-59
2021/09/08 05:57:23;;;;;;;36.60;27.08;;;16.30;99.90;;;;;;5093276;28;20031;-59
2021/09/08 05:59:49;;;;;;;36.30;26.55;;;16.40;99.90;;;;;;5093176;28;20044;-59
2021/09/08 06:02:14;;;;;;;35.20;25.27;;;16.50;99.90;;;;;;5092161;28;20036;-59
2021/09/08 06:04:40;;;;;;;36.67;26.40;;;16.50;99.90;;;;;;5092960;28;20044;-59
2021/09/08 06:07:06;;;;;;;31.90;25.08;;;16.60;99.90;;;;;;5093196;28;20043;-59
2021/09/08 06:09:31;;;;;;;35.05;25.63;;;16.70;99.90;;;;;;5093213;28;20043;-59
2021/09/08 06:11:57;;;;;;;34.25;26.15;;;16.80;99.90;;;;;;5093038;28;20040;-59
2021/09/08 06:14:24;;;;;;;37.92;26.95;;;16.90;99.90;;;;;;5092942;28;20089;-60
2021/09/08 06:16:50;;;;;;;39.88;25.70;;;17.00;99.90;;;;;;5092928;28;20048;-59
2021/09/08 06:19:16;;;;;;;30.48;24.33;;;17.20;99.90;;;;;;5092746;28;20048;-60
2021/09/08 06:21:42;;;;;;;32.17;24.63;;;17.40;99.90;;;;;;5092930;28;20123;-60
2021/09/08 06:24:08;;;;;;;31.10;23.45;;;17.50;99.90;;;;;;5092799;28;20052;-60
2021/09/08 06:26:33;;;;;;;31.95;23.90;;;17.70;99.90;;;;;;5092696;28;20040;-60
2021/09/08 06:28:59;;;;;;;32.33;24.67;;;18.00;99.90;;;;;;5092670;28;20093;-60
2021/09/08 06:31:24;;;;;;;28.08;23.02;;;18.20;99.90;;;;;;5092601;28;20032;-60
2021/09/08 06:33:50;;;;;;;31.52;24.35;;;18.40;99.90;;;;;;5074687;28;20060;-60
2021/09/08 06:36:17;;;;;;;36.08;26.48;;;18.60;99.90;;;;;;5092733;28;20101;-61
2021/09/08 06:38:43;;;;;;;39.35;27.67;;;18.90;99.90;;;;;;5092541;28;20040;-59
2021/09/08 06:41:09;;;;;;;32.13;23.83;;;19.00;99.90;;;;;;5092614;28;20050;-60
2021/09/08 06:43:34;;;;;;;30.27;22.83;;;19.20;99.90;;;;;;5092323;28;20397;-59
2021/09/08 06:46:00;;;;;;;27.10;22.00;;;19.50;99.90;;;;;;5092352;28;20051;-60
2021/09/08 06:48:26;;;;;;;33.47;21.00;;;19.70;99.90;;;;;;5092236;28;20101;-59
2021/09/08 06:50:51;;;;;;;27.65;20.48;;;19.90;99.90;;;;;;5091355;28;20048;-60
2021/09/08 06:53:17;;;;;;;27.55;21.20;;;20.00;99.90;;;;;;5092195;28;20036;-60
2021/09/08 06:55:43;;;;;;;32.40;22.70;;;20.10;99.90;;;;;;5092364;28;20062;-60
2021/09/08 06:58:08;;;;;;;23.33;20.13;;;20.40;99.90;;;;;;5092366;28;20143;-59
2021/09/08 07:00:34;;;;;;;32.60;21.60;;;20.60;99.90;;;;;;5092161;28;20046;-60
2021/09/08 07:03:00;;;;;;;28.23;21.30;;;20.70;99.90;;;;;;5092210;28;20101;-60
2021/09/08 07:05:25;;;;;;;28.45;21.10;;;20.90;99.90;;;;;;5092330;28;20121;-61
2021/09/08 07:07:51;;;;;;;25.42;21.25;;;21.00;99.90;;;;;;5092204;28;20032;-60
2021/09/08 07:10:17;;;;;;;25.40;19.70;;;21.10;99.90;;;;;;5092123;28;20449;-60
2021/09/08 07:12:43;;;;;;;24.08;19.90;;;21.40;99.90;;;;;;5092069;28;20051;-61
2021/09/08 07:15:10;;;;;;;24.15;18.95;;;21.60;99.90;;;;;;5091616;28;20462;-60
2021/09/08 07:17:36;;;;;;;25.13;18.80;;;21.80;99.90;;;;;;5091905;28;20035;-61
2021/09/08 07:20:01;;;;;;;22.67;17.70;;;22.10;99.90;;;;;;5091934;28;20043;-60
2021/09/08 07:22:27;;;;;;;23.38;17.35;;;22.20;99.90;;;;;;5091768;28;20135;-60
2021/09/08 07:24:54;;;;;;;21.33;17.33;;;22.30;99.90;;;;;;5091942;28;20131;-60
2021/09/08 07:27:19;;;;;;;19.98;15.50;;;22.60;99.90;;;;;;5091897;28;20111;-60
2021/09/08 07:29:45;;;;;;;22.83;18.30;;;23.00;99.90;;;;;;5091678;28;20370;-60
2021/09/08 07:32:11;;;;;;;20.13;15.38;;;23.10;99.90;;;;;;5091665;28;20047;-60
2021/09/08 07:34:37;;;;;;;19.55;14.63;;;23.20;99.90;;;;;;5090703;28;20451;-60
2021/09/08 07:37:04;;;;;;;18.33;15.27;;;23.30;99.90;;;;;;5091886;28;20432;-60
2021/09/08 07:39:30;;;;;;;20.05;14.77;;;23.60;99.90;;;;;;5091854;28;20389;-60
2021/09/08 07:41:56;;;;;;;20.27;14.63;;;23.60;99.90;;;;;;5091706;28;20047;-60
2021/09/08 07:44:22;;;;;;;20.35;15.13;;;23.90;99.90;;;;;;5091588;28;20076;-60
2021/09/08 07:46:47;;;;;;;19.58;14.48;;;24.30;99.90;;;;;;5090315;28;20087;-60
2021/09/08 07:49:13;;;;;;;21.80;15.10;;;24.50;99.90;;;;;;5091778;28;20089;-60
2021/09/08 07:51:39;;;;;;;17.17;13.77;;;24.80;99.90;;;;;;5091888;28;20043;-60
2021/09/08 07:54:04;;;;;;;17.38;12.10;;;25.00;99.90;;;;;;5091734;28;20113;-60
2021/09/08 07:56:30;;;;;;;21.38;13.73;;;25.20;99.90;;;;;;5091459;28;20052;-60
2021/09/08 07:58:56;;;;;;;16.38;12.40;;;25.30;99.90;;;;;;5090621;28;20063;-60
2021/09/08 08:01:21;;;;;;;15.80;12.20;;;25.50;99.90;;;;;;5091460;28;20063;-60
2021/09/08 08:03:47;;;;;;;14.75;11.25;;;25.60;99.90;;;;;;5091598;28;20047;-60
2021/09/08 08:06:13;;;;;;;18.75;11.70;;;25.70;99.90;;;;;;5091405;28;20043;-60
2021/09/08 08:08:38;;;;;;;17.23;11.77;;;25.90;99.90;;;;;;5091543;28;20040;-61
2021/09/08 08:11:05;;;;;;;12.95;10.90;;;26.00;99.90;;;;;;5091683;28;20446;-61
2021/09/08 08:13:30;;;;;;;12.05;10.02;;;26.00;99.90;;;;;;5091426;28;20035;-60
2021/09/08 08:15:56;;;;;;;11.32;9.85;;;26.10;99.90;;;;;;5091286;28;20177;-60
2021/09/08 08:18:22;;;;;;;12.68;9.38;;;25.90;99.90;;;;;;5091131;28;20402;-61
2021/09/08 08:20:47;;;;;;;12.07;9.50;;;26.00;99.90;;;;;;5091496;28;20036;-60
2021/09/08 08:23:15;;;;;;;13.25;10.23;;;26.10;99.90;;;;;;5091105;28;20382;-61
2021/09/08 08:25:41;;;;;;;13.13;9.88;;;26.40;99.90;;;;;;5092022;28;20413;-60
2021/09/08 08:28:06;;;;;;;15.20;10.15;;;26.50;99.90;;;;;;5094943;28;20040;-60
2021/09/08 08:30:34;;;;;;;12.65;9.57;;;26.50;99.90;;;;;;5094899;28;20482;-60
2021/09/08 08:33:01;;;;;;;15.82;10.82;;;26.60;99.60;;;;;;5095110;28;20119;-61
2021/09/08 08:35:27;;;;;;;14.95;9.75;;;26.80;99.90;;;;;;5095072;28;20032;-60
2021/09/08 08:37:53;;;;;;;14.60;9.38;;;27.00;99.60;;;;;;5094828;28;20039;-61
2021/09/08 08:40:20;;;;;;;11.82;9.85;;;27.40;99.90;;;;;;5094891;28;20078;-61
2021/09/08 08:42:47;;;;;;;14.73;9.80;;;27.40;99.60;;;;;;5094682;28;20474;-60
2021/09/08 08:45:13;;;;;;;13.82;9.25;;;27.40;99.90;;;;;;5094920;28;20381;-61
2021/09/08 08:47:39;;;;;;;11.30;9.07;;;27.40;99.10;;;;;;5094951;28;20044;-61
2021/09/08 08:50:10;;;;;;;12.27;8.68;;;27.60;98.70;;;;;;5095166;28;20462;-60
2021/09/08 08:52:35;;;;;;;9.15;8.15;;;27.80;98.30;;;;;;5094723;28;20074;-60
2021/09/08 08:55:01;;;;;;;11.40;8.27;;;27.80;98.90;;;;;;5094513;28;20068;-61
2021/09/08 08:57:28;;;;;;;8.90;7.75;;;27.70;98.40;;;;;;5094645;28;20096;-61
2021/09/08 08:59:53;;;;;;;11.23;7.55;;;27.80;98.40;;;;;;5094850;28;20151;-61
2021/09/08 09:02:19;;;;;;;13.25;8.10;;;27.90;97.70;;;;;;5094697;28;20483;-60
2021/09/08 09:04:45;;;;;;;11.30;7.38;;;28.20;97.20;;;;;;5094507;28;20381;-60
2021/09/08 09:07:25;;;;;;;10.00;7.38;;;28.20;97.60;;;;;;5094295;28;20048;-60
2021/09/08 09:09:56;;;;;;;9.00;7.40;;;28.40;97.50;;;;;;5094133;28;20044;-60
2021/09/08 09:12:40;;;;;;;11.88;8.55;;;28.30;96.70;;;;;;5094185;28;20062;-61
2021/09/08 09:15:08;;;;;;;11.65;8.43;;;28.10;95.90;;;;;;5094196;28;20120;-61
2021/09/08 09:17:35;;;;;;;;;;;28.10;96.70;;;;;;5094550;28;20444;-61
2021/09/08 09:20:12;;;;;;;12.23;8.50;;;28.40;96.00;;;;;;5094181;28;19923;-60
2021/09/08 09:22:45;;;;;;;12.90;7.85;;;28.10;95.30;;;;;;5094078;28;20584;-61
2021/09/08 09:25:15;;;;;;;8.80;7.13;;;28.30;97.20;;;;;;5094144;28;20048;-61
2021/09/08 09:27:55;;;;;;;8.95;7.72;;;27.90;95.60;;;;;;5094053;28;20040;-61
2021/09/08 09:30:27;;;;;;;9.55;6.97;;;27.80;95.00;;;;;;5094042;28;20044;-61
2021/09/08 09:32:55;;;;;;;11.32;7.40;;;28.00;96.40;;;;;;5093752;28;20539;-61
2021/09/08 09:35:23;;;;;;;10.30;6.78;;;27.80;96.00;;;;;;5093947;28;20105;-60
2021/09/08 09:37:51;;;;;;;9.25;7.40;;;27.70;95.80;;;;;;5093772;28;20047;-61
2021/09/08 09:40:24;;;;;;;9.23;6.95;;;27.80;96.40;;;;;;5093808;28;20040;-61
2021/09/08 09:42:50;;;;;;;8.70;7.18;;;27.70;96.50;;;;;;5093527;28;20047;-61
2021/09/08 09:45:16;;;;;;;10.32;7.78;;;27.50;96.50;;;;;;5093467;28;20044;-61
2021/09/08 09:47:44;;;;;;;11.07;7.22;;;27.40;96.50;;;;;;5093498;28;20085;-61
2021/09/08 09:50:17;;;;;;;8.13;7.13;;;27.40;97.10;;;;;;5093545;28;20047;-60
2021/09/08 09:52:54;;;;;;;7.82;6.53;;;27.30;95.50;;;;;;5093850;28;20419;-61
2021/09/08 09:55:21;;;;;;;10.93;6.90;;;27.30;97.50;;;;;;5093425;28;20044;-61
2021/09/08 09:57:47;;;;;;;9.13;6.55;;;27.30;94.90;;;;;;5093324;28;20040;-61
2021/09/08 10:00:15;;;;;;;10.20;6.13;;;27.30;96.10;;;;;;5093165;28;20046;-61
2021/09/08 10:02:41;;;;;;;9.27;6.25;;;27.40;97.10;;;;;;5093390;28;20098;-61
2021/09/08 10:05:08;;;;;;;8.15;6.07;;;27.30;96.20;;;;;;5093153;28;20047;-61
2021/09/08 10:07:35;;;;;;;8.98;5.97;;;27.20;96.10;;;;;;5093455;28;20063;-61
2021/09/08 10:10:19;;;;;;;12.55;6.57;;;27.30;96.10;;;;;;5093126;28;20080;-61
2021/09/08 10:13:07;;;;;;;12.63;7.50;;;27.00;94.90;;;;;;5092967;28;20043;-61
2021/09/08 10:15:33;;;;;;;8.15;6.75;;;27.00;95.00;;;;;;5093182;28;20036;-61
2021/09/08 10:18:10;;;;;;;9.13;6.45;;;27.10;96.20;;;;;;5092887;28;20067;-61
2021/09/08 10:20:36;;;;;;;10.48;7.10;;;27.00;94.40;;;;;;5091819;28;20039;-61
2021/09/08 10:23:07;;;;;;;10.75;6.68;;;26.90;95.50;;;;;;5092612;28;20478;-61
2021/09/08 10:25:34;;;;;;;10.38;6.85;;;27.10;96.00;;;;;;5092936;28;20074;-61
2021/09/08 10:28:00;;;;;;;9.05;6.35;;;27.20;96.40;;;;;;5091399;28;20050;-61
2021/09/08 10:30:26;;;;;;;8.90;6.28;;;27.40;95.80;;;;;;5092816;28;20032;-61
2021/09/08 10:32:56;;;;;;;10.65;6.72;;;27.40;95.10;;;;;;5092652;28;20066;-61
2021/09/08 10:35:23;;;;;;;8.82;6.50;;;27.30;95.20;;;;;;5092459;28;20089;-60
2021/09/08 10:37:53;;;;;;;7.70;6.53;;;27.30;95.60;;;;;;5092767;28;20043;-61
2021/09/08 10:40:23;;;;;;;8.45;5.95;;;27.40;95.70;;;;;;5091352;28;20455;-62
2021/09/08 10:42:59;;;;;;;12.43;6.45;;;27.10;94.80;;;;;;5092431;28;20044;-61
2021/09/08 10:45:29;;;;;;;10.00;6.97;;;27.00;95.30;;;;;;5092458;28;20032;-61
2021/09/08 10:48:01;;;;;;;10.00;6.32;;;27.00;95.50;;;;;;5092102;28;20063;-61
2021/09/08 10:50:35;;;;;;;9.02;6.78;;;27.00;95.70;;;;;;5091942;28;20044;-61
2021/09/08 10:53:22;;;;;;;9.75;6.65;;;26.90;96.10;;;;;;5088108;28;20058;-62
2021/09/08 10:55:50;;;;;;;8.98;7.05;;;26.80;95.80;;;;;;5069903;28;20053;-61
2021/09/08 10:58:16;;;;;;;8.20;6.63;;;26.90;96.10;;;;;;5069600;28;20044;-61
2021/09/08 11:00:43;;;;;;;10.45;6.28;;;27.00;96.10;;;;;;5069754;28;20627;-61
2021/09/08 11:03:14;;;;;;;10.60;6.65;;;26.90;96.20;;;;;;5069703;28;20078;-60
2021/09/08 11:05:58;;;;;;;10.30;7.00;;;26.70;95.40;;;;;;5053084;28;20048;-61
2021/09/08 11:08:26;;;;;;;10.90;7.18;;;26.80;96.00;;;;;;5069661;28;20033;-60
2021/09/08 11:11:17;;;;;;;9.13;7.05;;;26.90;95.50;;;;;;5069594;28;20044;-61
2021/09/08 11:13:45;;;;;;;10.10;6.70;;;26.90;95.70;;;;;;5052983;28;20060;-61
2021/09/08 11:16:25;;;;;;;10.00;6.65;;;27.10;96.30;;;;;;5069601;28;20398;-61
2021/09/08 11:18:52;;;;;;;8.57;6.57;;;27.10;95.40;;;;;;5069753;28;20059;-61
2021/09/08 11:21:21;;;;;;;9.33;6.63;;;27.10;96.30;;;;;;5069542;28;20045;-60
2021/09/08 11:23:47;;;;;;;9.10;7.03;;;27.20;96.90;;;;;;5069229;28;20299;-61
2021/09/08 11:26:13;;;;;;;15.43;6.03;;;27.30;95.90;;;;;;5069440;28;20080;-60
2021/09/08 11:28:41;;;;;;;8.40;5.93;;;27.40;96.30;;;;;;5069669;28;20179;-60
2021/09/08 11:31:18;;;;;;;7.75;6.00;;;27.50;95.20;;;;;;5069543;28;20040;-61
2021/09/08 11:33:44;;;;;;;12.63;6.35;;;27.60;95.50;;;;;;5088342;28;20094;-61
2021/09/08 11:36:35;;;;;;;9.50;7.30;;;27.60;95.80;;;;;;5090110;28;20048;-61
2021/09/08 11:39:00;;;;;;;9.30;6.75;;;27.50;94.90;;;;;;5105641;28;20497;-61
2021/09/08 11:41:28;;;;;;;10.73;6.05;;;27.50;95.10;;;;;;5072770;28;20040;-61
2021/09/08 11:43:57;;;;;;;8.30;6.63;;;27.50;94.50;;;;;;5072573;28;20058;-61
2021/09/08 11:46:29;;;;;;;11.50;6.90;;;27.40;94.80;;;;;;5089501;28;20518;-61
2021/09/08 11:49:16;;;;;;;6.93;6.28;;;27.40;95.10;;;;;;5056150;28;20614;-61
2021/09/08 11:51:43;;;;;;;8.60;6.78;;;27.50;96.00;;;;;;5072520;28;20047;-61
2021/09/08 11:54:22;;;;;;;8.15;5.72;;;27.40;96.10;;;;;;5089199;28;20115;-61
2021/09/08 11:56:53;;;;;;;;;;;27.50;95.70;;;;;;5089627;28;20048;-61
2021/09/08 11:59:33;;;;;;;10.13;5.53;;;27.50;95.60;;;;;;5072164;28;20014;-61
2021/09/08 12:01:59;;;;;;;10.02;5.80;;;27.40;96.20;;;;;;5093132;28;20079;-61
2021/09/08 12:04:26;;;;;;;9.88;5.88;;;27.50;96.10;;;;;;5093075;28;20093;-61
2021/09/08 12:07:03;;;;;;;8.35;6.15;;;27.60;96.30;;;;;;5091993;28;20097;-60
2021/09/08 12:09:30;;;;;;;8.10;6.13;;;27.60;95.70;;;;;;5093636;28;20044;-60
2021/09/08 12:12:00;;;;;;;7.93;6.83;;;27.50;96.40;;;;;;5095346;28;20044;-61
2021/09/08 12:14:42;;;;;;;8.75;6.40;;;27.50;96.30;;;;;;5093912;28;20286;-61
2021/09/08 12:17:13;;;;;;;10.30;6.90;;;27.60;95.50;;;;;;5094936;28;20089;-60
2021/09/08 12:19:41;;;;;;;8.18;6.20;;;27.40;96.20;;;;;;5094968;28;20482;-61
2021/09/08 12:22:12;;;;;;;7.28;6.20;;;27.40;96.50;;;;;;5094965;28;20089;-60
2021/09/08 12:24:44;;;;;;;6.80;6.10;;;27.40;96.50;;;;;;5095157;28;20048;-61
2021/09/08 12:27:31;;;;;;;8.05;5.85;;;27.50;96.20;;;;;;5094880;28;20497;-61
2021/09/08 12:30:04;;;;;;;8.32;5.80;;;27.30;96.10;;;;;;5094774;28;20044;-62
2021/09/08 12:33:03;;;;;;;10.40;6.05;;;27.30;96.20;;;;;;5094905;28;20166;-60
2021/09/08 12:35:47;;;;;;;8.27;5.50;;;27.40;96.20;;;;;;5072558;28;20113;-61